createdAt,value
2018-11-25T00:00:48.082Z,33.90
2018-11-25T00:01:44.911Z,34.80
2018-11-25T00:05:53.079Z,33.10
2018-11-25T00:16:33.034Z,35.30
2018-11-25T00:17:17.713Z,34.50
2018-11-25T00:18:31.648Z,33.30
2018-11-25T00:19:40.626Z,36.00
2018-11-25T00:22:17.898Z,34.60
2018-11-25T00:26:07.010Z,34.00
2018-11-25T00:27:13.502Z,34.40
2018-11-25T00:28:00.955Z,33.20
2018-11-25T00:29:35.967Z,32.60
2018-11-25T00:30:21.464Z,33.20
2018-11-25T00:33:12.034Z,31.70
2018-11-25T00:33:41.593Z,30.80
2018-11-25T00:36:17.139Z,32.10
2018-11-25T00:37:04.505Z,32.20
2018-11-25T00:53:57.910Z,29.90
2018-11-25T00:56:06.071Z,27.90
2018-11-25T00:58:51.616Z,27.40
2018-11-25T01:00:04.632Z,26.80
2018-11-25T01:02:22.875Z,26.50
2018-11-25T01:03:16.864Z,27.40
2018-11-25T01:05:43.756Z,25.60
2018-11-25T01:08:20.749Z,24.80
2018-11-25T01:09:19.803Z,23.10
2018-11-25T01:10:15.734Z,22.90
2018-11-25T01:11:15.234Z,21.20
2018-11-25T01:13:55.564Z,20.60
2018-11-25T01:16:42.777Z,19.80
2018-11-25T01:19:01.816Z,18.10
2018-11-25T01:19:52.748Z,18.80
2018-11-25T01:21:23.308Z,18.60
2018-11-25T01:22:02.309Z,18.90
2018-11-25T01:22:53.336Z,18.70
2018-11-25T01:25:29.411Z,18.60
2018-11-25T01:26:25.241Z,18.60
2018-11-25T01:29:23.965Z,25.60
2018-11-25T01:32:01.360Z,27.60
2018-11-25T01:33:05.306Z,28.90
2018-11-25T01:33:33.382Z,28.20
2018-11-25T01:34:53.051Z,28.00
2018-11-25T01:35:51.018Z,28.30
2018-11-25T01:36:34.933Z,27.80
2018-11-25T01:37:30.937Z,27.00
2018-11-25T01:38:29.449Z,25.50
2018-11-25T01:39:32.406Z,26.10
2018-11-25T01:42:08.397Z,28.30
2018-11-25T01:43:09.958Z,28.60
2018-11-25T01:44:14.695Z,28.50
2018-11-25T01:47:00.878Z,29.00
2018-11-25T01:47:46.839Z,28.80
2018-11-25T01:49:01.288Z,28.60
2018-11-25T01:49:44.262Z,29.80
2018-11-25T01:50:37.882Z,31.40
2018-11-25T01:51:40.758Z,29.70
2018-11-25T01:54:18.101Z,29.30
2018-11-25T02:03:38.145Z,28.90
2018-11-25T02:04:38.184Z,29.70
2018-11-25T02:05:33.684Z,31.60
2018-11-25T02:06:52.327Z,31.20
2018-11-25T02:07:36.752Z,30.10
2018-11-25T02:08:34.198Z,31.50
2018-11-25T02:09:53.176Z,31.20
2018-11-25T02:10:55.616Z,30.60
2018-11-25T02:13:46.250Z,33.10
2018-11-25T02:14:06.573Z,33.20
2018-11-25T02:15:06.416Z,34.80
2018-11-25T02:16:06.897Z,34.20
2018-11-25T02:17:13.286Z,32.90
2018-11-25T02:26:20.053Z,32.50
2018-11-25T02:27:18.506Z,32.50
2018-11-25T02:27:57.545Z,32.90
2018-11-25T02:29:17.546Z,34.80
2018-11-25T02:32:00.751Z,33.90
2018-11-25T02:34:04.785Z,37.50
2018-11-25T02:35:09.285Z,35.20
2018-11-25T02:35:59.799Z,36.80
2018-11-25T02:38:42.624Z,33.50
2018-11-25T02:40:06.177Z,33.80
2018-11-25T02:42:11.284Z,33.80
2018-11-25T02:43:06.256Z,32.50
2018-11-25T02:44:25.350Z,33.10
2018-11-25T02:49:43.964Z,28.20
2018-11-25T02:51:05.467Z,27.60
2018-11-25T02:52:01.034Z,27.10
2018-11-25T02:52:39.141Z,29.50
2018-11-25T02:54:01.426Z,27.60
2018-11-25T02:55:03.036Z,29.30
2018-11-25T02:56:07.473Z,29.10
2018-11-25T02:56:46.471Z,29.80
2018-11-25T02:58:03.636Z,31.20
2018-11-25T02:58:43.420Z,32.10
2018-11-25T02:59:39.688Z,31.70
2018-11-25T03:00:41.438Z,30.40
2018-11-25T03:01:41.971Z,31.60
2018-11-25T03:08:02.472Z,33.20
2018-11-25T03:14:02.874Z,31.50
2018-11-25T03:14:43.402Z,30.40
2018-11-25T03:15:31.855Z,30.60
2018-11-25T03:16:36.867Z,29.50
2018-11-25T03:17:14.881Z,28.10
2018-11-25T03:18:31.338Z,27.60
2018-11-25T03:20:46.371Z,28.90
2018-11-25T03:22:08.791Z,31.60
2018-11-25T03:23:02.790Z,32.80
2018-11-25T03:24:10.883Z,33.20
2018-11-25T03:25:03.311Z,33.90
2018-11-25T03:29:17.076Z,36.10
2018-11-25T03:29:47.987Z,36.00
2018-11-25T03:30:52.004Z,36.00
2018-11-25T03:31:47.046Z,35.40
2018-11-25T03:32:47.457Z,36.50
2018-11-25T03:33:50.944Z,36.10
2018-11-25T03:35:01.502Z,34.10
2018-11-25T03:37:24.143Z,36.20
2018-11-25T03:40:09.933Z,34.80
2018-11-25T03:42:48.254Z,35.20
2018-11-25T03:46:38.430Z,32.80
2018-11-25T03:47:51.571Z,32.30
2018-11-25T03:52:14.110Z,31.70
2018-11-25T03:53:01.587Z,32.40
2018-11-25T03:59:49.440Z,30.60
2018-11-25T04:01:14.250Z,29.10
2018-11-25T04:03:30.493Z,31.10
2018-11-25T04:04:15.257Z,30.60
2018-11-25T04:05:16.962Z,31.10
2018-11-25T04:06:27.021Z,30.90
2018-11-25T04:07:17.834Z,30.80
2018-11-25T04:08:36.572Z,33.70
2018-11-25T04:09:51.074Z,35.00
2018-11-25T04:10:16.319Z,34.00
2018-11-25T04:11:36.558Z,33.10
2018-11-25T04:12:18.018Z,31.60
2018-11-25T04:13:37.873Z,33.50
2018-11-25T04:16:00.698Z,34.50
2018-11-25T04:16:51.677Z,36.50
2018-11-25T04:17:54.215Z,35.80
2018-11-25T04:19:24.741Z,35.50
2018-11-25T04:19:58.703Z,34.20
2018-11-25T04:21:03.699Z,34.20
2018-11-25T04:21:50.146Z,33.10
2018-11-25T04:22:51.173Z,33.90
2018-11-25T04:23:48.479Z,32.10
2018-11-25T04:24:56.659Z,32.90
2018-11-25T04:25:50.691Z,33.50
2018-11-25T04:26:51.694Z,33.70
2018-11-25T04:27:49.023Z,33.10
2018-11-25T04:28:50.160Z,32.30
2018-11-25T04:30:10.378Z,34.80
2018-11-25T04:30:55.193Z,33.50
2018-11-25T04:31:49.767Z,33.70
2018-11-25T04:32:54.658Z,33.40
2018-11-25T04:33:53.197Z,33.60
2018-11-25T04:34:51.146Z,33.40
2018-11-25T04:35:54.198Z,33.50
2018-11-25T04:39:05.652Z,33.20
2018-11-25T04:46:07.015Z,33.90
2018-11-25T04:47:36.851Z,32.50
2018-11-25T04:48:19.653Z,32.70
2018-11-25T04:52:16.573Z,32.60
2018-11-25T04:53:08.650Z,33.60
2018-11-25T04:54:23.601Z,32.00
2018-11-25T04:56:43.160Z,30.80
2018-11-25T04:58:16.700Z,29.40
2018-11-25T04:58:43.376Z,30.40
2018-11-25T04:59:48.678Z,32.50
2018-11-25T05:00:44.521Z,31.70
2018-11-25T05:01:48.140Z,32.10
2018-11-25T05:04:16.607Z,33.50
2018-11-25T05:05:42.397Z,33.40
2018-11-25T05:06:35.837Z,34.50
2018-11-25T05:07:17.814Z,41.20
2018-11-25T05:08:17.306Z,36.50
2018-11-25T05:09:39.318Z,38.90
2018-11-25T05:11:51.377Z,39.60
2018-11-25T05:12:49.529Z,40.00
2018-11-25T05:14:13.549Z,41.70
2018-11-25T05:15:12.049Z,40.60
2018-11-25T05:15:48.768Z,37.70
2018-11-25T05:16:49.049Z,37.30
2018-11-25T05:17:53.015Z,37.90
2018-11-25T05:19:05.020Z,38.60
2018-11-25T05:20:00.128Z,37.80
2018-11-25T05:20:52.021Z,38.80
2018-11-25T05:21:52.974Z,38.10
2018-11-25T05:23:18.482Z,36.90
2018-11-25T05:23:53.502Z,37.70
2018-11-25T05:27:03.086Z,37.90
2018-11-25T05:27:49.602Z,37.10
2018-11-25T05:32:04.317Z,36.40
2018-11-25T05:33:11.786Z,36.60
2018-11-25T05:33:50.532Z,48.60
2018-11-25T05:36:28.115Z,54.10
2018-11-25T05:37:21.527Z,39.90
2018-11-25T05:38:23.704Z,51.90
2018-11-25T05:39:50.418Z,50.00
2018-11-25T06:09:10.660Z,33.00
2018-11-25T06:17:43.517Z,34.30
2018-11-25T06:21:45.201Z,31.70
2018-11-25T06:23:17.205Z,33.10
2018-11-25T06:23:49.206Z,32.30
2018-11-25T06:35:58.524Z,31.40
2018-11-25T06:37:08.984Z,33.10
2018-11-25T06:44:03.056Z,32.90
2018-11-25T06:45:02.642Z,35.30
2018-11-25T06:45:59.987Z,44.10
2018-11-25T06:50:27.276Z,36.20
2018-11-25T06:51:04.386Z,32.20
2018-11-25T06:54:07.778Z,32.90
2018-11-25T06:56:09.565Z,32.30
2018-11-25T06:57:06.555Z,31.40
2018-11-25T06:58:08.588Z,32.70
2018-11-25T06:59:06.806Z,32.30
2018-11-25T07:00:14.595Z,32.60
2018-11-25T07:01:08.186Z,32.10
2018-11-25T07:02:11.089Z,32.90
2018-11-25T07:03:09.355Z,33.20
2018-11-25T07:04:14.578Z,32.90
2018-11-25T07:05:08.545Z,34.40
2018-11-25T07:06:08.156Z,34.60
2018-11-25T07:07:08.380Z,34.70
2018-11-25T07:08:10.074Z,34.20
2018-11-25T07:09:09.889Z,34.10
2018-11-25T07:10:08.903Z,33.40
2018-11-25T07:11:09.134Z,32.70
2018-11-25T07:12:11.078Z,33.80
2018-11-25T07:13:09.555Z,33.80
2018-11-25T07:14:10.662Z,33.30
2018-11-25T07:15:09.758Z,33.40
2018-11-25T07:16:11.581Z,32.80
2018-11-25T07:17:11.671Z,33.10
2018-11-25T07:18:12.071Z,32.90
2018-11-25T07:19:17.082Z,33.60
2018-11-25T07:20:13.579Z,32.90
2018-11-25T07:21:12.534Z,33.80
2018-11-25T07:22:14.573Z,34.30
2018-11-25T07:23:11.187Z,34.20
2018-11-25T07:24:40.110Z,34.50
2018-11-25T07:25:15.113Z,34.00
2018-11-25T07:26:13.778Z,34.40
2018-11-25T07:27:13.611Z,33.70
2018-11-25T07:28:18.542Z,33.10
2018-11-25T07:29:23.120Z,33.60
2018-11-25T07:30:12.454Z,32.10
2018-11-25T07:31:15.129Z,32.30
2018-11-25T07:32:18.081Z,32.00
2018-11-25T07:33:21.539Z,32.40
2018-11-25T07:34:21.606Z,33.20
2018-11-25T07:35:37.087Z,34.30
2018-11-25T07:36:14.031Z,34.40
2018-11-25T07:37:13.506Z,32.80
2018-11-25T07:38:15.649Z,33.20
2018-11-25T07:39:15.631Z,34.30
2018-11-25T07:40:15.644Z,34.20
2018-11-25T07:41:22.050Z,33.70
2018-11-25T07:42:15.272Z,33.90
2018-11-25T07:43:21.083Z,31.30
2018-11-25T07:44:27.577Z,32.20
2018-11-25T07:45:15.915Z,32.50
2018-11-25T07:46:18.534Z,33.40
2018-11-25T07:47:32.538Z,31.00
2018-11-25T07:48:16.070Z,33.30
2018-11-25T07:49:17.117Z,34.80
2018-11-25T07:50:19.113Z,34.00
2018-11-25T07:51:24.091Z,33.50
2018-11-25T07:52:22.586Z,33.40
2018-11-25T07:53:20.619Z,33.10
2018-11-25T07:54:19.072Z,33.10
2018-11-25T07:57:04.642Z,34.30
2018-11-25T07:58:26.839Z,34.30
2018-11-25T07:58:49.140Z,35.20
2018-11-25T07:59:49.332Z,32.90
2018-11-25T08:00:57.227Z,35.00
2018-11-25T08:01:50.064Z,34.20
2018-11-25T08:02:51.685Z,34.90
2018-11-25T08:03:52.608Z,32.90
2018-11-25T08:04:53.162Z,33.50
2018-11-25T08:05:54.394Z,35.90
2018-11-25T08:06:54.156Z,32.00
2018-11-25T08:08:12.771Z,33.90
2018-11-25T08:08:52.876Z,35.30
2018-11-25T08:09:55.627Z,34.20
2018-11-25T08:11:21.128Z,36.80
2018-11-25T08:12:14.155Z,39.80
2018-11-25T08:13:14.169Z,35.80
2018-11-25T08:13:51.734Z,33.60
2018-11-25T08:14:52.015Z,34.80
2018-11-25T08:15:53.681Z,34.60
2018-11-25T08:16:54.672Z,34.10
2018-11-25T08:18:13.551Z,32.80
2018-11-25T08:19:16.680Z,34.70
2018-11-25T08:19:55.633Z,33.90
2018-11-25T08:56:52.788Z,31.50
2018-11-25T08:58:01.407Z,30.60
2018-11-25T09:03:16.766Z,28.80
2018-11-25T09:04:17.119Z,30.00
2018-11-25T09:07:13.398Z,30.00
2018-11-25T09:07:42.334Z,31.00
2018-11-25T09:08:42.281Z,29.70
2018-11-25T09:09:56.259Z,30.20
2018-11-25T09:10:42.794Z,29.60
2018-11-25T09:11:42.741Z,31.20
2018-11-25T09:12:43.249Z,29.60
2018-11-25T09:13:45.293Z,29.80
2018-11-25T09:14:43.261Z,29.80
2018-11-25T09:15:43.769Z,28.90
2018-11-25T09:16:46.748Z,28.40
2018-11-25T09:17:42.171Z,28.50
2018-11-25T09:18:42.384Z,27.40
2018-11-25T09:19:43.603Z,25.60
2018-11-25T09:20:44.747Z,26.50
2018-11-25T09:21:42.976Z,26.90
2018-11-25T09:22:43.217Z,27.00
2018-11-25T09:23:44.339Z,36.10
2018-11-25T09:24:45.339Z,29.00
2018-11-25T09:25:45.245Z,34.00
2018-11-25T09:26:59.745Z,29.70
2018-11-25T09:27:44.966Z,28.60
2018-11-25T09:28:52.306Z,26.40
2018-11-25T09:29:51.263Z,26.30
2018-11-25T09:30:52.245Z,26.40
2018-11-25T09:31:46.284Z,26.40
2018-11-25T09:32:48.768Z,26.50
2018-11-25T09:33:48.786Z,26.70
2018-11-25T09:34:45.177Z,27.10
2018-11-25T09:35:46.769Z,26.40
2018-11-25T09:36:45.477Z,25.20
2018-11-25T09:37:45.675Z,25.70
2018-11-25T09:38:45.912Z,26.30
2018-11-25T09:39:47.752Z,26.00
2018-11-25T09:40:46.206Z,27.00
2018-11-25T09:42:09.257Z,27.20
2018-11-25T09:42:48.311Z,27.70
2018-11-25T09:43:46.774Z,26.70
2018-11-25T09:44:47.993Z,27.30
2018-11-25T09:45:48.765Z,26.40
2018-11-25T09:46:49.268Z,27.60
2018-11-25T09:47:47.521Z,28.30
2018-11-25T09:49:03.251Z,27.60
2018-11-25T09:49:55.754Z,27.90
2018-11-25T09:50:49.741Z,27.20
2018-11-25T09:51:49.759Z,27.20
2018-11-25T09:53:03.748Z,27.50
2018-11-25T09:53:50.247Z,26.60
2018-11-25T09:54:50.242Z,26.20
2018-11-25T09:56:04.242Z,25.60
2018-11-25T09:56:48.831Z,26.80
2018-11-25T09:57:52.745Z,26.20
2018-11-25T09:58:52.746Z,25.70
2018-11-25T09:59:51.271Z,26.00
2018-11-25T10:00:49.511Z,25.70
2018-11-25T10:01:49.692Z,26.40
2018-11-25T10:02:53.747Z,26.30
2018-11-25T10:03:50.069Z,25.60
2018-11-25T10:04:52.249Z,25.90
2018-11-25T10:05:51.501Z,25.50
2018-11-25T10:06:50.657Z,26.30
2018-11-25T10:07:59.294Z,25.70
2018-11-25T10:08:56.745Z,25.00
2018-11-25T10:10:13.743Z,26.20
2018-11-25T10:10:52.731Z,25.50
2018-11-25T10:11:53.251Z,25.70
2018-11-25T10:12:51.827Z,25.40
2018-11-25T10:13:52.078Z,25.60
2018-11-25T10:14:52.175Z,24.80
2018-11-25T10:15:52.395Z,25.00
2018-11-25T10:16:52.611Z,24.80
2018-11-25T10:17:59.922Z,24.40
2018-11-25T10:19:05.960Z,23.80
2018-11-25T10:20:04.745Z,24.80
2018-11-25T10:20:58.210Z,24.40
2018-11-25T10:57:34.325Z,17.00
2018-11-25T10:58:14.212Z,16.40
2018-11-25T10:59:13.467Z,17.20
2018-11-25T11:00:14.699Z,17.50
2018-11-25T11:01:13.898Z,17.70
2018-11-25T11:02:15.693Z,17.00
2018-11-25T11:03:15.721Z,17.50
2018-11-25T11:04:17.193Z,17.40
2018-11-25T11:05:14.525Z,16.90
2018-11-25T11:06:14.739Z,17.40
2018-11-25T11:07:14.953Z,17.80
2018-11-25T11:08:15.177Z,17.90
2018-11-25T11:09:15.388Z,18.00
2018-11-25T11:10:17.269Z,17.50
2018-11-25T11:11:16.791Z,18.50
2018-11-25T11:12:17.008Z,18.50
2018-11-25T11:13:19.189Z,17.90
2018-11-25T11:14:16.418Z,17.90
2018-11-25T11:15:18.185Z,18.10
2018-11-25T11:16:16.637Z,18.40
2018-11-25T11:17:16.859Z,17.80
2018-11-25T11:18:17.110Z,18.00
2018-11-25T11:19:19.227Z,18.50
2018-11-25T11:20:17.435Z,18.40
2018-11-25T11:21:17.634Z,17.70
2018-11-25T11:22:18.815Z,18.80
2018-11-25T11:23:19.032Z,19.10
2018-11-25T11:24:18.303Z,18.20
2018-11-25T11:25:22.236Z,18.10
2018-11-25T11:26:23.196Z,18.80
2018-11-25T11:27:20.225Z,19.50
2018-11-25T11:28:21.693Z,19.00
2018-11-25T11:29:19.070Z,19.40
2018-11-25T11:30:21.187Z,19.40
2018-11-25T11:31:21.838Z,20.10
2018-11-25T11:32:20.576Z,19.40
2018-11-25T11:33:23.194Z,18.20
2018-11-25T11:34:21.821Z,18.60
2018-11-25T11:35:20.050Z,19.00
2018-11-25T11:36:22.197Z,19.40
2018-11-25T11:37:20.414Z,19.80
2018-11-25T11:38:22.212Z,20.20
2018-11-25T11:39:20.664Z,19.30
2018-11-25T11:40:22.689Z,19.40
2018-11-25T11:41:21.023Z,19.20
2018-11-25T11:42:24.291Z,19.10
2018-11-25T11:43:23.189Z,19.70
2018-11-25T11:44:23.194Z,19.60
2018-11-25T11:45:21.804Z,19.70
2018-11-25T11:46:24.713Z,19.90
2018-11-25T11:47:23.057Z,21.00
2018-11-25T11:48:30.185Z,20.40
2018-11-25T11:49:22.401Z,20.60
2018-11-25T11:50:24.188Z,21.30
2018-11-25T11:51:25.851Z,19.70
2018-11-25T11:52:24.712Z,20.10
2018-11-25T11:53:26.691Z,19.00
2018-11-25T11:54:23.272Z,19.30
2018-11-25T11:55:23.468Z,19.90
2018-11-25T11:56:23.685Z,19.40
2018-11-25T11:57:23.888Z,19.10
2018-11-25T11:58:24.102Z,19.20
2018-11-25T11:59:26.239Z,19.30
2018-11-25T12:00:26.172Z,18.10
2018-11-25T12:01:26.687Z,17.20
2018-11-25T12:02:31.371Z,19.30
2018-11-25T12:03:26.839Z,18.30
2018-11-25T12:04:25.289Z,19.00
2018-11-25T12:05:25.489Z,18.40
2018-11-25T12:06:25.700Z,19.50
2018-11-25T12:07:25.911Z,18.40
2018-11-25T12:08:27.688Z,18.20
2018-11-25T12:09:26.276Z,18.10
2018-11-25T12:10:28.210Z,19.80
2018-11-25T12:11:28.197Z,18.90
2018-11-25T12:12:30.714Z,18.50
2018-11-25T12:13:26.932Z,19.70
2018-11-25T12:14:29.699Z,19.50
2018-11-25T12:15:30.714Z,19.60
2018-11-25T12:16:33.393Z,19.20
2018-11-25T12:17:29.203Z,19.70
2018-11-25T12:18:27.802Z,19.70
2018-11-25T12:19:29.708Z,19.50
2018-11-25T12:20:28.171Z,20.30
2018-11-25T12:21:28.369Z,19.80
2018-11-25T12:22:29.625Z,20.50
2018-11-25T12:23:30.719Z,20.60
2018-11-25T12:24:28.923Z,20.70
2018-11-25T12:25:29.132Z,20.60
2018-11-25T12:26:31.222Z,20.40
2018-11-25T12:27:31.199Z,20.50
2018-11-25T12:28:29.828Z,21.30
2018-11-25T12:29:29.988Z,20.90
2018-11-25T12:30:31.697Z,19.80
2018-11-25T12:31:30.394Z,20.10
2018-11-25T12:32:32.194Z,20.20
2018-11-25T12:33:30.814Z,20.00
2018-11-25T12:34:34.698Z,19.60
2018-11-25T12:35:33.712Z,20.10
2018-11-25T12:36:32.701Z,18.90
2018-11-25T12:37:36.199Z,19.60
2018-11-25T12:38:31.559Z,18.50
2018-11-25T12:39:33.222Z,19.60
2018-11-25T12:40:31.839Z,20.30
2018-11-25T12:41:32.034Z,19.00
2018-11-25T12:42:32.285Z,19.40
2018-11-25T12:43:34.207Z,19.40
2018-11-25T12:44:33.642Z,18.70
2018-11-25T12:45:34.688Z,18.60
2018-11-25T12:46:34.694Z,18.20
2018-11-25T12:47:34.692Z,19.80
2018-11-25T12:48:35.193Z,20.60
2018-11-25T12:49:33.435Z,20.80
2018-11-25T12:50:34.536Z,19.80
2018-11-25T12:51:36.738Z,21.00
2018-11-25T12:52:36.712Z,19.10
2018-11-25T12:53:35.740Z,19.10
2018-11-25T12:54:34.276Z,19.10
2018-11-25T12:55:35.497Z,20.20
2018-11-25T12:56:42.730Z,18.90
2018-11-25T12:57:34.906Z,19.00
2018-11-25T12:58:36.700Z,20.10
2018-11-25T12:59:35.301Z,18.70
2018-11-25T13:00:37.245Z,18.70
2018-11-25T13:01:38.144Z,19.30
2018-11-25T13:02:35.873Z,18.70
2018-11-25T13:03:37.693Z,18.80
2018-11-25T13:04:40.195Z,18.70
2018-11-25T13:05:36.405Z,18.00
2018-11-25T13:06:38.205Z,19.00
2018-11-25T13:07:38.743Z,18.10
2018-11-25T13:08:39.693Z,18.50
2018-11-25T13:09:38.706Z,19.10
2018-11-25T13:10:37.336Z,19.40
2018-11-25T13:11:39.199Z,19.90
2018-11-25T13:12:37.642Z,20.50
2018-11-25T13:13:37.868Z,18.90
2018-11-25T13:14:43.693Z,22.00
2018-11-25T13:15:43.793Z,21.00
2018-11-25T13:16:39.370Z,22.30
2018-11-25T13:17:38.614Z,22.60
2018-11-25T13:18:40.699Z,22.80
2018-11-25T13:19:40.690Z,22.00
2018-11-25T13:20:40.701Z,20.90
2018-11-25T13:21:39.276Z,20.40
2018-11-25T13:22:41.235Z,21.20
2018-11-25T13:23:43.253Z,22.70
2018-11-25T13:24:39.870Z,21.80
2018-11-25T13:25:40.070Z,20.60
2018-11-25T13:26:44.192Z,26.60
2018-11-25T13:27:42.207Z,21.70
2018-11-25T13:28:42.195Z,21.60
2018-11-25T13:29:40.765Z,21.80
2018-11-25T13:30:47.754Z,26.00
2018-11-25T13:31:42.698Z,27.30
2018-11-25T13:32:43.199Z,22.90
2018-11-25T13:33:41.408Z,22.10
2018-11-25T13:34:49.207Z,24.40
2018-11-25T13:35:43.707Z,22.80
2018-11-25T13:36:42.929Z,21.10
2018-11-25T13:37:43.743Z,22.30
2018-11-25T13:38:44.198Z,22.50
2018-11-25T13:39:49.197Z,22.00
2018-11-25T13:40:46.246Z,21.30
2018-11-25T13:41:44.191Z,21.70
2018-11-25T13:42:44.717Z,21.90
2018-11-25T13:43:49.166Z,22.60
2018-11-25T13:44:45.195Z,21.20
2018-11-25T13:45:43.395Z,27.20
2018-11-25T13:46:49.608Z,28.10
2018-11-25T13:47:43.848Z,39.80
2018-11-25T13:48:45.738Z,23.80
2018-11-25T13:49:47.705Z,30.00
2018-11-25T13:50:46.195Z,43.80
2018-11-25T13:51:44.509Z,24.10
2018-11-25T13:52:44.723Z,28.10
2018-11-25T13:53:46.697Z,40.50
2018-11-25T13:54:47.656Z,29.10
2018-11-25T13:55:45.403Z,41.30
2018-11-25T13:56:47.235Z,29.70
2018-11-25T13:57:47.734Z,28.20
2018-11-25T13:58:46.912Z,24.80
2018-11-25T13:59:49.705Z,27.90
2018-11-25T14:00:50.200Z,26.70
2018-11-25T14:01:48.208Z,23.80
2018-11-25T14:02:48.191Z,24.50
2018-11-25T14:03:46.641Z,24.30
2018-11-25T14:04:48.884Z,23.30
2018-11-25T14:05:53.164Z,23.30
2018-11-25T14:06:48.712Z,24.10
2018-11-25T14:07:48.331Z,23.40
2018-11-25T14:08:49.196Z,24.00
2018-11-25T14:09:51.193Z,23.20
2018-11-25T14:10:51.696Z,25.20
2018-11-25T14:11:47.933Z,23.50
2018-11-25T14:12:50.702Z,23.90
2018-11-25T14:13:48.153Z,24.70
2018-11-25T14:14:50.208Z,23.00
2018-11-25T14:15:50.203Z,24.30
2018-11-25T14:16:48.707Z,23.00
2018-11-25T14:17:48.802Z,22.60
2018-11-25T14:18:50.691Z,22.80
2018-11-25T14:19:50.720Z,22.40
2018-11-25T14:20:50.710Z,22.80
2018-11-25T14:21:49.289Z,22.70
2018-11-25T14:22:51.243Z,22.20
2018-11-25T14:23:57.194Z,22.50
2018-11-25T14:24:51.714Z,22.40
2018-11-25T14:25:49.937Z,23.70
2018-11-25T14:26:50.132Z,23.20
2018-11-25T14:27:52.196Z,23.30
2018-11-25T14:28:52.235Z,22.80
2018-11-25T14:29:52.692Z,22.80
2018-11-25T14:30:50.913Z,22.40
2018-11-25T14:31:52.131Z,21.90
2018-11-25T14:32:51.347Z,22.00
2018-11-25T14:33:51.551Z,21.90
2018-11-25T14:34:51.773Z,21.10
2018-11-25T14:35:52.040Z,22.10
2018-11-25T14:36:53.755Z,21.90
2018-11-25T14:37:59.266Z,22.70
2018-11-25T14:38:53.446Z,20.90
2018-11-25T14:39:52.726Z,21.00
2018-11-25T14:40:54.696Z,21.00
2018-11-25T14:41:54.704Z,21.30
2018-11-25T14:42:56.692Z,20.70
2018-11-25T14:43:55.207Z,20.80
2018-11-25T14:44:54.441Z,19.80
2018-11-25T14:45:54.543Z,19.60
2018-11-25T14:46:56.729Z,19.90
2018-11-25T14:47:53.947Z,19.90
2018-11-25T14:48:57.694Z,20.60
2018-11-25T14:49:54.291Z,21.90
2018-11-25T14:50:56.199Z,22.50
2018-11-25T14:51:56.225Z,22.00
2018-11-25T14:52:56.193Z,20.70
2018-11-25T14:53:58.729Z,21.00
2018-11-25T14:54:55.078Z,20.10
2018-11-25T14:55:55.284Z,20.00
2018-11-25T14:56:57.221Z,19.20
2018-11-25T14:57:55.701Z,18.50
2018-11-25T14:58:55.800Z,19.10
2018-11-25T14:59:56.009Z,19.80
2018-11-25T15:00:58.197Z,19.70
2018-11-25T15:02:04.369Z,19.70
2018-11-25T15:03:00.192Z,19.40
2018-11-25T15:03:56.662Z,19.30
2018-11-25T15:04:59.693Z,18.70
2018-11-25T15:06:00.710Z,19.20
2018-11-25T15:06:58.697Z,20.00
2018-11-25T15:07:58.271Z,19.00
2018-11-25T15:09:00.397Z,19.00
2018-11-25T15:09:59.933Z,19.60
2018-11-25T15:10:59.696Z,19.30
2018-11-25T15:11:57.911Z,18.90
2018-11-25T15:13:00.692Z,18.20
2018-11-25T15:13:59.280Z,18.10
2018-11-25T15:15:00.243Z,18.50
2018-11-25T15:16:14.202Z,18.90
2018-11-25T15:17:02.720Z,19.30
2018-11-25T15:17:59.069Z,18.00
2018-11-25T15:18:59.493Z,19.10
2018-11-25T15:19:59.738Z,18.30
2018-11-25T15:21:01.200Z,18.40
2018-11-25T15:21:59.942Z,18.70
2018-11-25T15:23:01.721Z,19.40
2018-11-25T15:24:08.213Z,19.40
2018-11-25T15:25:02.195Z,18.80
2018-11-25T15:26:02.211Z,19.50
2018-11-25T15:27:00.842Z,19.60
2018-11-25T15:28:00.930Z,20.60
2018-11-25T15:29:02.147Z,19.10
2018-11-25T15:30:04.194Z,20.00
2018-11-25T15:31:03.221Z,19.90
2018-11-25T15:32:01.699Z,19.60
2018-11-25T15:33:08.309Z,20.00
2018-11-25T15:34:03.704Z,19.50
2018-11-25T15:35:03.696Z,20.20
2018-11-25T15:36:02.294Z,20.10
2018-11-25T15:37:04.279Z,20.50
2018-11-25T15:38:03.393Z,19.80
2018-11-25T15:39:27.697Z,20.10
2018-11-25T15:40:06.705Z,20.30
2018-11-25T15:41:24.199Z,20.10
2018-11-25T15:42:05.206Z,20.40
2018-11-25T15:43:06.223Z,20.30
2018-11-25T15:44:03.756Z,20.30
2018-11-25T15:45:11.654Z,21.10
2018-11-25T15:46:03.997Z,21.20
2018-11-25T15:47:08.271Z,20.30
2018-11-25T15:48:08.199Z,21.00
2018-11-25T15:49:06.189Z,21.20
2018-11-25T15:50:04.648Z,20.70
2018-11-25T15:51:04.898Z,21.80
2018-11-25T15:52:08.736Z,22.00
2018-11-25T15:53:06.717Z,21.50
2018-11-25T15:54:06.837Z,21.50
2018-11-25T15:55:05.636Z,21.00
2018-11-25T15:56:05.868Z,21.90
2018-11-25T15:57:07.714Z,22.90
2018-11-25T15:58:11.721Z,25.30
2018-11-25T15:59:08.217Z,26.00
2018-11-25T16:00:08.196Z,22.20
2018-11-25T16:01:08.204Z,22.30
2018-11-25T16:02:10.717Z,21.90
2018-11-25T16:03:06.929Z,22.30
2018-11-25T16:04:07.653Z,27.20
2018-11-25T16:05:07.258Z,27.00
2018-11-25T16:06:15.242Z,33.90
2018-11-25T16:07:07.676Z,20.90
2018-11-25T16:08:09.716Z,27.40
2018-11-25T16:09:08.934Z,22.50
2018-11-25T16:10:08.153Z,25.40
2018-11-25T16:11:12.197Z,21.90
2018-11-25T16:12:09.546Z,22.50
2018-11-25T16:13:09.209Z,21.50
2018-11-25T16:14:08.801Z,22.60
2018-11-25T16:15:12.693Z,22.30
2018-11-25T16:16:09.173Z,23.50
2018-11-25T16:17:18.295Z,22.90
2018-11-25T16:18:09.481Z,21.90
2018-11-25T16:19:13.206Z,21.50
2018-11-25T16:20:12.660Z,21.00
2018-11-25T16:21:11.136Z,21.20
2018-11-25T16:22:10.364Z,21.30
2018-11-25T16:23:32.590Z,21.00
2018-11-25T16:24:18.699Z,21.20
2018-11-25T16:25:14.697Z,22.70
2018-11-25T16:26:14.698Z,23.00
2018-11-25T16:27:11.149Z,21.20
2018-11-25T16:28:12.376Z,20.90
2018-11-25T16:29:13.230Z,21.10
2018-11-25T16:30:11.709Z,21.50
2018-11-25T16:31:11.913Z,21.70
2018-11-25T16:32:17.706Z,21.00
2018-11-25T16:33:12.327Z,20.80
2018-11-25T16:34:19.233Z,21.00
2018-11-25T16:35:18.196Z,21.60
2018-11-25T16:36:14.399Z,21.20
2018-11-25T16:37:14.695Z,20.50
2018-11-25T16:38:14.705Z,19.80
2018-11-25T16:39:15.224Z,20.20
2018-11-25T16:40:15.220Z,20.50
2018-11-25T16:41:17.166Z,20.20
2018-11-25T16:42:13.901Z,20.00
2018-11-25T16:43:15.737Z,19.90
2018-11-25T16:44:17.198Z,21.20
2018-11-25T16:45:14.442Z,20.20
2018-11-25T16:46:37.257Z,19.60
2018-11-25T16:47:16.758Z,19.70
2018-11-25T16:48:18.741Z,19.20
2018-11-25T16:49:16.747Z,20.10
2018-11-25T16:50:24.511Z,19.80
2018-11-25T16:51:17.199Z,20.40
2018-11-25T16:52:15.810Z,19.60
2018-11-25T16:53:15.978Z,19.80
2018-11-25T16:54:16.178Z,20.80
2018-11-25T16:55:19.199Z,19.80
2018-11-25T16:56:18.205Z,20.30
2018-11-25T16:57:18.205Z,20.20
2018-11-25T16:58:18.702Z,20.70
2018-11-25T16:59:18.724Z,22.60
2018-11-25T17:00:17.118Z,22.40
2018-11-25T17:01:19.225Z,20.90
2018-11-25T17:02:21.196Z,20.30
2018-11-25T17:03:21.235Z,20.60
2018-11-25T17:04:19.703Z,23.80
2018-11-25T17:05:18.038Z,21.50
2018-11-25T17:06:18.254Z,21.80
2018-11-25T17:07:20.154Z,20.50
2018-11-25T17:08:18.645Z,20.50
2018-11-25T17:09:20.698Z,20.40
2018-11-25T17:10:21.708Z,22.50
2018-11-25T17:11:21.711Z,22.20
2018-11-25T17:12:19.294Z,20.20
2018-11-25T17:13:31.213Z,22.10
2018-11-25T17:14:19.677Z,24.40
2018-11-25T17:15:21.738Z,26.70
2018-11-25T17:16:20.087Z,31.50
2018-11-25T17:17:20.298Z,25.80
2018-11-25T17:18:21.158Z,26.30
2018-11-25T17:19:20.639Z,26.60
2018-11-25T17:20:43.719Z,25.80
2018-11-25T17:21:21.035Z,22.80
2018-11-25T17:22:21.236Z,21.90
2018-11-25T17:23:21.439Z,22.20
2018-11-25T17:24:23.200Z,24.40
2018-11-25T17:25:22.225Z,22.10
2018-11-25T17:26:21.953Z,22.50
2018-11-25T17:27:23.703Z,21.90
2018-11-25T17:28:23.720Z,21.00
2018-11-25T17:29:25.652Z,21.20
2018-11-25T17:30:25.190Z,20.70
2018-11-25T17:31:22.659Z,21.40
2018-11-25T17:32:23.917Z,21.70
2018-11-25T17:33:24.744Z,22.50
2018-11-25T17:34:25.214Z,23.20
2018-11-25T17:35:23.425Z,22.40
2018-11-25T17:36:24.692Z,22.80
2018-11-25T17:37:23.795Z,22.10
2018-11-25T17:38:25.716Z,22.10